sensor_id;sensor_type;location;lat;lon;timestamp;P1;durP1;ratioP1;P2;durP2;ratioP2
16288;SDS011;26089;43.538;5.250;2023-04-12T00:00:18;5.30;;;3.67;;
16288;SDS011;26089;43.538;5.250;2023-04-12T00:02:45;5.17;;;3.40;;
16288;SDS011;26089;43.538;5.250;2023-04-12T00:05:18;8.57;;;3.40;;
16288;SDS011;26089;43.538;5.250;2023-04-12T00:07:47;4.43;;;3.10;;
16288;SDS011;26089;43.538;5.250;2023-04-12T00:10:18;6.20;;;4.17;;
16288;SDS011;26089;43.538;5.250;2023-04-12T00:12:45;5.97;;;3.83;;
16288;SDS011;26089;43.538;5.250;2023-04-12T00:15:13;8.57;;;4.30;;
16288;SDS011;26089;43.538;5.250;2023-04-12T00:17:40;7.30;;;3.60;;
16288;SDS011;26089;43.538;5.250;2023-04-12T00:20:07;4.17;;;3.60;;
16288;SDS011;26089;43.538;5.250;2023-04-12T00:22:36;6.60;;;3.47;;
16288;SDS011;26089;43.538;5.250;2023-04-12T00:25:03;10.27;;;4.07;;
16288;SDS011;26089;43.538;5.250;2023-04-12T00:27:32;5.23;;;3.53;;
16288;SDS011;26089;43.538;5.250;2023-04-12T00:29:59;6.73;;;3.73;;
16288;SDS011;26089;43.538;5.250;2023-04-12T00:32:26;5.47;;;3.60;;
16288;SDS011;26089;43.538;5.250;2023-04-12T00:34:53;5.20;;;3.80;;
16288;SDS011;26089;43.538;5.250;2023-04-12T00:37:20;7.47;;;3.53;;
16288;SDS011;26089;43.538;5.250;2023-04-12T00:39:47;6.03;;;3.50;;
16288;SDS011;26089;43.538;5.250;2023-04-12T00:42:15;5.10;;;4.10;;
16288;SDS011;26089;43.538;5.250;2023-04-12T00:44:43;5.50;;;4.10;;
16288;SDS011;26089;43.538;5.250;2023-04-12T00:47:10;8.47;;;4.90;;
16288;SDS011;26089;43.538;5.250;2023-04-12T00:49:37;9.60;;;5.00;;
16288;SDS011;26089;43.538;5.250;2023-04-12T00:52:06;5.43;;;3.53;;
16288;SDS011;26089;43.538;5.250;2023-04-12T00:54:34;7.67;;;4.60;;
16288;SDS011;26089;43.538;5.250;2023-04-12T00:57:02;5.13;;;4.10;;
16288;SDS011;26089;43.538;5.250;2023-04-12T00:59:29;7.23;;;4.50;;
16288;SDS011;26089;43.538;5.250;2023-04-12T01:01:58;7.50;;;4.00;;
16288;SDS011;26089;43.538;5.250;2023-04-12T01:04:25;6.07;;;3.97;;
16288;SDS011;26089;43.538;5.250;2023-04-12T01:06:58;6.17;;;3.80;;
16288;SDS011;26089;43.538;5.250;2023-04-12T01:09:35;7.83;;;4.50;;
16288;SDS011;26089;43.538;5.250;2023-04-12T01:12:17;8.50;;;5.00;;
16288;SDS011;26089;43.538;5.250;2023-04-12T01:14:53;8.67;;;5.10;;
16288;SDS011;26089;43.538;5.250;2023-04-12T01:17:29;6.00;;;4.90;;
16288;SDS011;26089;43.538;5.250;2023-04-12T01:20:04;11.27;;;5.40;;
16288;SDS011;26089;43.538;5.250;2023-04-12T01:22:43;14.00;;;5.97;;
16288;SDS011;26089;43.538;5.250;2023-04-12T01:25:34;6.90;;;5.17;;
16288;SDS011;26089;43.538;5.250;2023-04-12T01:28:06;12.40;;;5.93;;
16288;SDS011;26089;43.538;5.250;2023-04-12T01:30:35;9.87;;;5.90;;
16288;SDS011;26089;43.538;5.250;2023-04-12T01:33:03;13.13;;;6.77;;
16288;SDS011;26089;43.538;5.250;2023-04-12T01:35:31;11.70;;;7.60;;
16288;SDS011;26089;43.538;5.250;2023-04-12T01:37:59;15.03;;;6.83;;
16288;SDS011;26089;43.538;5.250;2023-04-12T01:40:27;15.43;;;7.27;;
16288;SDS011;26089;43.538;5.250;2023-04-12T01:43:02;15.93;;;9.20;;
16288;SDS011;26089;43.538;5.250;2023-04-12T01:45:32;20.30;;;10.33;;
16288;SDS011;26089;43.538;5.250;2023-04-12T01:47:59;19.00;;;10.53;;
16288;SDS011;26089;43.538;5.250;2023-04-12T01:50:29;18.73;;;11.10;;
16288;SDS011;26089;43.538;5.250;2023-04-12T01:53:12;22.07;;;12.57;;
16288;SDS011;26089;43.538;5.250;2023-04-12T01:55:43;19.17;;;11.17;;
16288;SDS011;26089;43.538;5.250;2023-04-12T01:58:12;13.73;;;10.47;;
16288;SDS011;26089;43.538;5.250;2023-04-12T02:00:43;14.27;;;9.87;;
16288;SDS011;26089;43.538;5.250;2023-04-12T02:03:11;12.07;;;7.70;;
16288;SDS011;26089;43.538;5.250;2023-04-12T02:05:38;9.57;;;6.17;;
16288;SDS011;26089;43.538;5.250;2023-04-12T02:08:05;12.53;;;5.90;;
16288;SDS011;26089;43.538;5.250;2023-04-12T02:10:33;11.63;;;6.17;;
16288;SDS011;26089;43.538;5.250;2023-04-12T02:13:03;14.00;;;7.53;;
16288;SDS011;26089;43.538;5.250;2023-04-12T02:15:31;14.53;;;8.87;;
16288;SDS011;26089;43.538;5.250;2023-04-12T02:17:59;20.47;;;10.77;;
16288;SDS011;26089;43.538;5.250;2023-04-12T02:20:27;25.60;;;12.67;;
16288;SDS011;26089;43.538;5.250;2023-04-12T02:22:54;27.07;;;13.10;;
16288;SDS011;26089;43.538;5.250;2023-04-12T02:25:21;32.97;;;14.27;;
16288;SDS011;26089;43.538;5.250;2023-04-12T02:27:48;23.43;;;13.53;;
16288;SDS011;26089;43.538;5.250;2023-04-12T02:30:15;23.53;;;13.10;;
16288;SDS011;26089;43.538;5.250;2023-04-12T02:32:44;22.00;;;11.47;;
16288;SDS011;26089;43.538;5.250;2023-04-12T02:35:13;18.03;;;11.03;;
16288;SDS011;26089;43.538;5.250;2023-04-12T02:37:42;25.13;;;12.97;;
16288;SDS011;26089;43.538;5.250;2023-04-12T02:40:11;18.90;;;11.33;;
16288;SDS011;26089;43.538;5.250;2023-04-12T02:42:39;19.27;;;10.90;;
16288;SDS011;26089;43.538;5.250;2023-04-12T02:45:07;17.53;;;10.67;;
16288;SDS011;26089;43.538;5.250;2023-04-12T02:47:35;20.60;;;11.80;;
16288;SDS011;26089;43.538;5.250;2023-04-12T02:50:03;20.03;;;12.90;;
16288;SDS011;26089;43.538;5.250;2023-04-12T02:52:32;22.37;;;12.67;;
16288;SDS011;26089;43.538;5.250;2023-04-12T02:54:59;24.03;;;12.40;;
16288;SDS011;26089;43.538;5.250;2023-04-12T02:57:26;20.90;;;12.87;;
16288;SDS011;26089;43.538;5.250;2023-04-12T02:59:53;23.57;;;11.97;;
16288;SDS011;26089;43.538;5.250;2023-04-12T03:02:20;23.50;;;13.50;;
16288;SDS011;26089;43.538;5.250;2023-04-12T03:04:47;25.20;;;15.43;;
16288;SDS011;26089;43.538;5.250;2023-04-12T03:07:16;32.07;;;15.10;;
16288;SDS011;26089;43.538;5.250;2023-04-12T03:09:45;26.60;;;15.13;;
16288;SDS011;26089;43.538;5.250;2023-04-12T03:12:13;27.10;;;15.70;;
16288;SDS011;26089;43.538;5.250;2023-04-12T03:14:40;24.30;;;14.37;;
16288;SDS011;26089;43.538;5.250;2023-04-12T03:17:07;27.40;;;15.17;;
16288;SDS011;26089;43.538;5.250;2023-04-12T03:19:35;25.57;;;15.47;;
16288;SDS011;26089;43.538;5.250;2023-04-12T03:22:02;33.17;;;14.63;;
16288;SDS011;26089;43.538;5.250;2023-04-12T03:24:29;24.37;;;14.37;;
16288;SDS011;26089;43.538;5.250;2023-04-12T03:27:00;21.60;;;13.17;;
16288;SDS011;26089;43.538;5.250;2023-04-12T03:29:28;23.60;;;13.63;;
16288;SDS011;26089;43.538;5.250;2023-04-12T03:31:55;24.27;;;11.80;;
16288;SDS011;26089;43.538;5.250;2023-04-12T03:34:23;21.40;;;12.73;;
16288;SDS011;26089;43.538;5.250;2023-04-12T03:36:52;24.03;;;13.57;;
16288;SDS011;26089;43.538;5.250;2023-04-12T03:39:19;27.13;;;13.80;;
16288;SDS011;26089;43.538;5.250;2023-04-12T03:41:47;19.80;;;13.33;;
16288;SDS011;26089;43.538;5.250;2023-04-12T03:44:15;32.10;;;14.40;;
16288;SDS011;26089;43.538;5.250;2023-04-12T03:46:42;28.77;;;14.87;;
16288;SDS011;26089;43.538;5.250;2023-04-12T03:49:09;28.10;;;15.43;;
16288;SDS011;26089;43.538;5.250;2023-04-12T03:51:36;27.40;;;14.93;;
16288;SDS011;26089;43.538;5.250;2023-04-12T03:54:06;28.07;;;15.40;;
16288;SDS011;26089;43.538;5.250;2023-04-12T03:56:34;27.47;;;16.23;;
16288;SDS011;26089;43.538;5.250;2023-04-12T03:59:02;25.03;;;15.10;;
16288;SDS011;26089;43.538;5.250;2023-04-12T04:01:33;22.03;;;14.13;;
16288;SDS011;26089;43.538;5.250;2023-04-12T04:04:01;23.33;;;12.50;;
16288;SDS011;26089;43.538;5.250;2023-04-12T04:06:29;26.23;;;13.53;;
16288;SDS011;26089;43.538;5.250;2023-04-12T04:08:56;34.37;;;14.70;;
16288;SDS011;26089;43.538;5.250;2023-04-12T04:11:23;29.90;;;15.63;;
16288;SDS011;26089;43.538;5.250;2023-04-12T04:13:50;27.73;;;14.20;;
16288;SDS011;26089;43.538;5.250;2023-04-12T04:16:17;26.33;;;14.43;;
16288;SDS011;26089;43.538;5.250;2023-04-12T04:18:46;29.93;;;14.63;;
16288;SDS011;26089;43.538;5.250;2023-04-12T04:21:13;25.77;;;13.50;;
16288;SDS011;26089;43.538;5.250;2023-04-12T04:23:40;22.47;;;11.57;;
16288;SDS011;26089;43.538;5.250;2023-04-12T04:26:08;23.47;;;10.10;;
16288;SDS011;26089;43.538;5.250;2023-04-12T04:28:37;19.30;;;9.87;;
16288;SDS011;26089;43.538;5.250;2023-04-12T04:31:06;19.73;;;11.47;;
16288;SDS011;26089;43.538;5.250;2023-04-12T04:33:34;20.43;;;11.60;;
16288;SDS011;26089;43.538;5.250;2023-04-12T04:36:03;29.43;;;12.17;;
16288;SDS011;26089;43.538;5.250;2023-04-12T04:38:32;27.13;;;12.87;;
16288;SDS011;26089;43.538;5.250;2023-04-12T04:40:59;32.40;;;13.07;;
16288;SDS011;26089;43.538;5.250;2023-04-12T04:43:27;37.37;;;14.67;;
16288;SDS011;26089;43.538;5.250;2023-04-12T04:45:55;29.47;;;13.03;;
16288;SDS011;26089;43.538;5.250;2023-04-12T04:48:23;29.83;;;14.23;;
16288;SDS011;26089;43.538;5.250;2023-04-12T04:50:50;32.93;;;15.20;;
16288;SDS011;26089;43.538;5.250;2023-04-12T04:53:19;29.43;;;14.53;;
16288;SDS011;26089;43.538;5.250;2023-04-12T04:55:47;37.77;;;15.47;;
16288;SDS011;26089;43.538;5.250;2023-04-12T04:58:14;33.63;;;15.33;;
16288;SDS011;26089;43.538;5.250;2023-04-12T05:00:41;32.47;;;15.03;;
16288;SDS011;26089;43.538;5.250;2023-04-12T05:03:10;34.63;;;15.47;;
16288;SDS011;26089;43.538;5.250;2023-04-12T05:05:37;32.30;;;15.27;;
16288;SDS011;26089;43.538;5.250;2023-04-12T05:08:04;28.83;;;14.40;;
16288;SDS011;26089;43.538;5.250;2023-04-12T05:10:32;26.67;;;12.67;;
16288;SDS011;26089;43.538;5.250;2023-04-12T05:12:59;28.90;;;14.10;;
16288;SDS011;26089;43.538;5.250;2023-04-12T05:15:26;31.83;;;13.63;;
16288;SDS011;26089;43.538;5.250;2023-04-12T05:17:55;25.87;;;12.77;;
16288;SDS011;26089;43.538;5.250;2023-04-12T05:20:22;28.77;;;12.97;;
16288;SDS011;26089;43.538;5.250;2023-04-12T05:22:49;25.83;;;13.57;;
16288;SDS011;26089;43.538;5.250;2023-04-12T05:25:16;24.23;;;12.57;;
16288;SDS011;26089;43.538;5.250;2023-04-12T05:27:46;28.20;;;14.30;;
16288;SDS011;26089;43.538;5.250;2023-04-12T05:30:13;23.77;;;12.77;;
16288;SDS011;26089;43.538;5.250;2023-04-12T05:32:40;30.97;;;13.10;;
16288;SDS011;26089;43.538;5.250;2023-04-12T05:35:07;32.40;;;14.73;;
16288;SDS011;26089;43.538;5.250;2023-04-12T05:37:34;37.27;;;15.83;;
16288;SDS011;26089;43.538;5.250;2023-04-12T05:40:01;34.40;;;15.60;;
16288;SDS011;26089;43.538;5.250;2023-04-12T05:42:30;32.47;;;15.87;;
16288;SDS011;26089;43.538;5.250;2023-04-12T05:44:59;36.97;;;15.37;;
16288;SDS011;26089;43.538;5.250;2023-04-12T05:47:25;36.43;;;17.47;;
16288;SDS011;26089;43.538;5.250;2023-04-12T05:49:53;40.42;;;21.85;;
16288;SDS011;26089;43.538;5.250;2023-04-12T05:52:20;38.00;;;17.87;;
16288;SDS011;26089;43.538;5.250;2023-04-12T05:54:47;36.20;;;19.60;;
16288;SDS011;26089;43.538;5.250;2023-04-12T05:57:13;42.20;;;18.53;;
16288;SDS011;26089;43.538;5.250;2023-04-12T05:59:41;35.90;;;16.77;;
16288;SDS011;26089;43.538;5.250;2023-04-12T06:02:10;33.27;;;18.07;;
16288;SDS011;26089;43.538;5.250;2023-04-12T06:04:37;36.23;;;17.23;;
16288;SDS011;26089;43.538;5.250;2023-04-12T06:07:04;37.53;;;17.07;;
16288;SDS011;26089;43.538;5.250;2023-04-12T06:09:34;37.43;;;18.23;;
16288;SDS011;26089;43.538;5.250;2023-04-12T06:12:01;34.90;;;16.97;;
16288;SDS011;26089;43.538;5.250;2023-04-12T06:14:28;36.63;;;16.80;;
16288;SDS011;26089;43.538;5.250;2023-04-12T06:16:54;41.13;;;19.30;;
16288;SDS011;26089;43.538;5.250;2023-04-12T06:19:23;38.73;;;18.00;;
16288;SDS011;26089;43.538;5.250;2023-04-12T06:21:51;38.90;;;17.57;;
16288;SDS011;26089;43.538;5.250;2023-04-12T06:24:18;38.50;;;18.77;;
16288;SDS011;26089;43.538;5.250;2023-04-12T06:26:45;37.47;;;17.23;;
16288;SDS011;26089;43.538;5.250;2023-04-12T06:29:12;37.93;;;17.90;;
16288;SDS011;26089;43.538;5.250;2023-04-12T06:31:39;36.30;;;17.33;;
16288;SDS011;26089;43.538;5.250;2023-04-12T06:34:06;31.13;;;17.43;;
16288;SDS011;26089;43.538;5.250;2023-04-12T06:36:34;28.20;;;16.77;;
16288;SDS011;26089;43.538;5.250;2023-04-12T06:39:02;28.80;;;17.23;;
16288;SDS011;26089;43.538;5.250;2023-04-12T06:41:30;30.33;;;17.63;;
16288;SDS011;26089;43.538;5.250;2023-04-12T06:43:56;35.43;;;19.87;;
16288;SDS011;26089;43.538;5.250;2023-04-12T06:46:27;34.83;;;19.70;;
16288;SDS011;26089;43.538;5.250;2023-04-12T06:48:54;29.77;;;18.67;;
16288;SDS011;26089;43.538;5.250;2023-04-12T06:51:21;25.90;;;17.13;;
16288;SDS011;26089;43.538;5.250;2023-04-12T06:53:50;29.23;;;18.57;;
16288;SDS011;26089;43.538;5.250;2023-04-12T06:56:17;28.57;;;18.50;;
16288;SDS011;26089;43.538;5.250;2023-04-12T06:58:44;31.63;;;18.43;;
16288;SDS011;26089;43.538;5.250;2023-04-12T07:01:11;36.53;;;18.20;;
16288;SDS011;26089;43.538;5.250;2023-04-12T07:03:38;34.07;;;17.90;;
16288;SDS011;26089;43.538;5.250;2023-04-12T07:06:05;30.57;;;18.97;;
16288;SDS011;26089;43.538;5.250;2023-04-12T07:08:33;32.93;;;17.40;;
16288;SDS011;26089;43.538;5.250;2023-04-12T07:11:02;25.50;;;16.53;;
16288;SDS011;26089;43.538;5.250;2023-04-12T07:13:30;28.50;;;16.20;;
16288;SDS011;26089;43.538;5.250;2023-04-12T07:15:57;26.37;;;16.20;;
16288;SDS011;26089;43.538;5.250;2023-04-12T07:18:25;29.57;;;16.23;;
16288;SDS011;26089;43.538;5.250;2023-04-12T07:20:53;23.30;;;15.00;;
16288;SDS011;26089;43.538;5.250;2023-04-12T07:23:20;26.10;;;15.80;;
16288;SDS011;26089;43.538;5.250;2023-04-12T07:25:47;31.40;;;16.10;;
16288;SDS011;26089;43.538;5.250;2023-04-12T07:28:16;23.53;;;14.10;;
16288;SDS011;26089;43.538;5.250;2023-04-12T07:30:43;21.47;;;13.17;;
16288;SDS011;26089;43.538;5.250;2023-04-12T07:33:10;20.33;;;12.40;;
16288;SDS011;26089;43.538;5.250;2023-04-12T07:35:37;19.10;;;12.23;;
16288;SDS011;26089;43.538;5.250;2023-04-12T07:38:05;19.83;;;12.13;;
16288;SDS011;26089;43.538;5.250;2023-04-12T07:40:32;19.17;;;12.23;;
16288;SDS011;26089;43.538;5.250;2023-04-12T07:42:58;18.93;;;11.57;;
16288;SDS011;26089;43.538;5.250;2023-04-12T07:45:27;17.67;;;11.00;;
16288;SDS011;26089;43.538;5.250;2023-04-12T07:47:54;16.93;;;10.50;;
16288;SDS011;26089;43.538;5.250;2023-04-12T07:50:21;17.07;;;10.13;;
16288;SDS011;26089;43.538;5.250;2023-04-12T07:52:48;15.27;;;9.50;;
16288;SDS011;26089;43.538;5.250;2023-04-12T07:55:15;18.83;;;9.60;;
16288;SDS011;26089;43.538;5.250;2023-04-12T07:57:42;18.67;;;11.13;;
16288;SDS011;26089;43.538;5.250;2023-04-12T08:00:09;17.17;;;10.07;;
16288;SDS011;26089;43.538;5.250;2023-04-12T08:02:38;12.63;;;8.67;;
16288;SDS011;26089;43.538;5.250;2023-04-12T08:05:05;12.97;;;8.10;;
16288;SDS011;26089;43.538;5.250;2023-04-12T08:07:33;13.77;;;8.40;;
16288;SDS011;26089;43.538;5.250;2023-04-12T08:10:00;12.60;;;8.00;;
16288;SDS011;26089;43.538;5.250;2023-04-12T08:12:27;15.97;;;8.40;;
16288;SDS011;26089;43.538;5.250;2023-04-12T08:14:54;9.73;;;7.23;;
16288;SDS011;26089;43.538;5.250;2023-04-12T08:17:21;9.40;;;6.83;;
16288;SDS011;26089;43.538;5.250;2023-04-12T08:19:49;9.07;;;5.87;;
16288;SDS011;26089;43.538;5.250;2023-04-12T08:22:16;13.03;;;8.90;;
16288;SDS011;26089;43.538;5.250;2023-04-12T08:24:43;13.63;;;8.17;;
16288;SDS011;26089;43.538;5.250;2023-04-12T08:27:10;13.20;;;7.63;;
16288;SDS011;26089;43.538;5.250;2023-04-12T08:29:38;11.57;;;8.00;;
16288;SDS011;26089;43.538;5.250;2023-04-12T08:32:05;8.40;;;5.60;;
16288;SDS011;26089;43.538;5.250;2023-04-12T08:34:33;9.17;;;6.43;;
16288;SDS011;26089;43.538;5.250;2023-04-12T08:37:02;12.90;;;6.17;;
16288;SDS011;26089;43.538;5.250;2023-04-12T08:39:29;10.50;;;6.50;;
16288;SDS011;26089;43.538;5.250;2023-04-12T08:41:56;9.53;;;5.87;;
16288;SDS011;26089;43.538;5.250;2023-04-12T08:44:32;10.50;;;6.40;;
16288;SDS011;26089;43.538;5.250;2023-04-12T08:47:02;8.97;;;5.63;;
16288;SDS011;26089;43.538;5.250;2023-04-12T08:49:30;7.83;;;5.60;;
16288;SDS011;26089;43.538;5.250;2023-04-12T08:51:59;7.97;;;4.90;;
16288;SDS011;26089;43.538;5.250;2023-04-12T08:54:31;6.33;;;4.63;;
16288;SDS011;26089;43.538;5.250;2023-04-12T08:56:58;7.00;;;3.93;;
16288;SDS011;26089;43.538;5.250;2023-04-12T08:59:26;4.73;;;3.23;;
16288;SDS011;26089;43.538;5.250;2023-04-12T09:01:55;5.90;;;3.63;;
16288;SDS011;26089;43.538;5.250;2023-04-12T09:04:22;3.80;;;3.30;;
16288;SDS011;26089;43.538;5.250;2023-04-12T09:06:50;4.60;;;3.17;;
16288;SDS011;26089;43.538;5.250;2023-04-12T09:09:17;8.70;;;3.67;;
16288;SDS011;26089;43.538;5.250;2023-04-12T09:11:46;73.40;;;7.27;;
16288;SDS011;26089;43.538;5.250;2023-04-12T09:14:20;23.10;;;3.73;;
16288;SDS011;26089;43.538;5.250;2023-04-12T09:16:48;8.40;;;2.93;;
16288;SDS011;26089;43.538;5.250;2023-04-12T09:19:15;4.73;;;2.50;;
16288;SDS011;26089;43.538;5.250;2023-04-12T09:21:55;4.70;;;2.57;;
16288;SDS011;26089;43.538;5.250;2023-04-12T09:24:22;5.50;;;2.60;;
16288;SDS011;26089;43.538;5.250;2023-04-12T09:26:55;4.63;;;2.17;;
16288;SDS011;26089;43.538;5.250;2023-04-12T09:29:27;3.60;;;2.20;;
16288;SDS011;26089;43.538;5.250;2023-04-12T09:31:55;7.13;;;2.30;;
16288;SDS011;26089;43.538;5.250;2023-04-12T09:34:26;6.13;;;2.30;;
16288;SDS011;26089;43.538;5.250;2023-04-12T09:36:53;3.30;;;2.00;;
16288;SDS011;26089;43.538;5.250;2023-04-12T09:39:29;6.07;;;2.57;;
16288;SDS011;26089;43.538;5.250;2023-04-12T09:42:04;5.53;;;2.27;;
16288;SDS011;26089;43.538;5.250;2023-04-12T09:44:31;7.23;;;2.13;;
16288;SDS011;26089;43.538;5.250;2023-04-12T09:46:59;5.43;;;2.37;;
16288;SDS011;26089;43.538;5.250;2023-04-12T09:49:34;7.37;;;2.30;;
16288;SDS011;26089;43.538;5.250;2023-04-12T09:52:03;4.00;;;2.00;;
16288;SDS011;26089;43.538;5.250;2023-04-12T09:54:31;3.60;;;2.07;;
16288;SDS011;26089;43.538;5.250;2023-04-12T09:57:04;2.70;;;2.03;;
16288;SDS011;26089;43.538;5.250;2023-04-12T09:59:34;4.70;;;2.87;;
16288;SDS011;26089;43.538;5.250;2023-04-12T10:02:03;3.87;;;1.90;;
16288;SDS011;26089;43.538;5.250;2023-04-12T10:04:33;3.80;;;2.30;;
16288;SDS011;26089;43.538;5.250;2023-04-12T10:07:01;3.33;;;1.93;;
16288;SDS011;26089;43.538;5.250;2023-04-12T10:09:28;3.23;;;2.03;;
16288;SDS011;26089;43.538;5.250;2023-04-12T10:11:55;4.83;;;2.40;;
16288;SDS011;26089;43.538;5.250;2023-04-12T10:14:25;4.03;;;2.60;;
16288;SDS011;26089;43.538;5.250;2023-04-12T10:16:54;7.03;;;2.70;;
16288;SDS011;26089;43.538;5.250;2023-04-12T10:19:23;3.70;;;2.33;;
16288;SDS011;26089;43.538;5.250;2023-04-12T10:21:52;4.27;;;2.90;;
16288;SDS011;26089;43.538;5.250;2023-04-12T10:24:20;6.03;;;2.77;;
16288;SDS011;26089;43.538;5.250;2023-04-12T10:26:48;3.87;;;2.60;;
16288;SDS011;26089;43.538;5.250;2023-04-12T10:29:26;4.20;;;2.80;;
16288;SDS011;26089;43.538;5.250;2023-04-12T10:31:55;5.83;;;3.10;;
16288;SDS011;26089;43.538;5.250;2023-04-12T10:34:23;7.13;;;3.20;;
16288;SDS011;26089;43.538;5.250;2023-04-12T10:36:53;8.23;;;3.50;;
16288;SDS011;26089;43.538;5.250;2023-04-12T10:39:37;9.37;;;5.37;;
16288;SDS011;26089;43.538;5.250;2023-04-12T10:42:15;5.73;;;3.20;;
16288;SDS011;26089;43.538;5.250;2023-04-12T10:44:44;7.00;;;3.53;;
16288;SDS011;26089;43.538;5.250;2023-04-12T10:47:12;6.77;;;3.47;;
16288;SDS011;26089;43.538;5.250;2023-04-12T10:49:40;6.70;;;3.23;;
16288;SDS011;26089;43.538;5.250;2023-04-12T10:55:46;4.00;;;2.90;;
16288;SDS011;26089;43.538;5.250;2023-04-12T11:01:15;9.03;;;3.10;;
16288;SDS011;26089;43.538;5.250;2023-04-12T11:06:47;3.60;;;2.40;;
16288;SDS011;26089;43.538;5.250;2023-04-12T11:09:19;5.63;;;2.40;;
16288;SDS011;26089;43.538;5.250;2023-04-12T11:11:47;3.80;;;1.70;;
16288;SDS011;26089;43.538;5.250;2023-04-12T11:14:15;3.73;;;2.00;;
16288;SDS011;26089;43.538;5.250;2023-04-12T11:19:54;3.87;;;2.30;;
16288;SDS011;26089;43.538;5.250;2023-04-12T11:22:23;3.20;;;2.40;;
16288;SDS011;26089;43.538;5.250;2023-04-12T11:24:53;2.87;;;2.30;;
16288;SDS011;26089;43.538;5.250;2023-04-12T11:27:21;3.87;;;2.40;;
16288;SDS011;26089;43.538;5.250;2023-04-12T11:29:49;4.57;;;2.20;;
16288;SDS011;26089;43.538;5.250;2023-04-12T11:32:19;3.13;;;2.03;;
16288;SDS011;26089;43.538;5.250;2023-04-12T11:34:48;4.67;;;2.90;;
16288;SDS011;26089;43.538;5.250;2023-04-12T11:37:17;4.37;;;2.40;;
16288;SDS011;26089;43.538;5.250;2023-04-12T11:39:45;4.27;;;3.80;;
16288;SDS011;26089;43.538;5.250;2023-04-12T11:42:15;8.73;;;4.90;;
16288;SDS011;26089;43.538;5.250;2023-04-12T11:44:43;4.30;;;3.83;;
16288;SDS011;26089;43.538;5.250;2023-04-12T11:47:15;6.20;;;3.97;;
16288;SDS011;26089;43.538;5.250;2023-04-12T11:49:45;10.43;;;4.80;;
16288;SDS011;26089;43.538;5.250;2023-04-12T11:52:13;8.40;;;3.67;;
16288;SDS011;26089;43.538;5.250;2023-04-12T11:54:42;4.13;;;2.93;;
16288;SDS011;26089;43.538;5.250;2023-04-12T11:57:10;4.93;;;3.17;;
16288;SDS011;26089;43.538;5.250;2023-04-12T11:59:38;6.30;;;3.23;;
16288;SDS011;26089;43.538;5.250;2023-04-12T12:02:08;6.20;;;3.40;;
16288;SDS011;26089;43.538;5.250;2023-04-12T12:04:35;7.57;;;3.97;;
16288;SDS011;26089;43.538;5.250;2023-04-12T12:07:03;6.43;;;3.53;;
16288;SDS011;26089;43.538;5.250;2023-04-12T12:09:32;6.57;;;3.33;;
16288;SDS011;26089;43.538;5.250;2023-04-12T12:11:59;6.78;;;3.70;;
16288;SDS011;26089;43.538;5.250;2023-04-12T12:14:27;7.90;;;3.92;;
16288;SDS011;26089;43.538;5.250;2023-04-12T12:16:55;7.30;;;3.50;;
16288;SDS011;26089;43.538;5.250;2023-04-12T12:19:26;3.72;;;2.72;;
16288;SDS011;26089;43.538;5.250;2023-04-12T12:22:04;4.60;;;3.13;;
16288;SDS011;26089;43.538;5.250;2023-04-12T12:24:45;9.70;;;3.17;;
16288;SDS011;26089;43.538;5.250;2023-04-12T12:27:18;5.57;;;3.10;;
16288;SDS011;26089;43.538;5.250;2023-04-12T12:29:50;7.40;;;3.57;;
16288;SDS011;26089;43.538;5.250;2023-04-12T12:32:19;5.40;;;3.77;;
16288;SDS011;26089;43.538;5.250;2023-04-12T12:34:51;5.73;;;4.17;;
16288;SDS011;26089;43.538;5.250;2023-04-12T12:37:21;9.33;;;4.47;;
16288;SDS011;26089;43.538;5.250;2023-04-12T12:40:02;8.50;;;4.67;;
16288;SDS011;26089;43.538;5.250;2023-04-12T12:42:44;11.57;;;5.70;;
16288;SDS011;26089;43.538;5.250;2023-04-12T12:45:12;10.50;;;5.53;;
16288;SDS011;26089;43.538;5.250;2023-04-12T12:47:46;10.40;;;5.50;;
16288;SDS011;26089;43.538;5.250;2023-04-12T12:50:14;13.70;;;6.13;;
16288;SDS011;26089;43.538;5.250;2023-04-12T12:52:44;10.97;;;6.30;;
16288;SDS011;26089;43.538;5.250;2023-04-12T12:55:12;10.90;;;6.23;;
16288;SDS011;26089;43.538;5.250;2023-04-12T12:57:39;11.90;;;6.33;;
16288;SDS011;26089;43.538;5.250;2023-04-12T13:00:07;13.30;;;6.63;;
16288;SDS011;26089;43.538;5.250;2023-04-12T13:02:37;16.03;;;6.60;;
16288;SDS011;26089;43.538;5.250;2023-04-12T13:05:05;14.13;;;7.10;;
16288;SDS011;26089;43.538;5.250;2023-04-12T13:07:33;12.80;;;7.10;;
16288;SDS011;26089;43.538;5.250;2023-04-12T13:10:01;15.20;;;7.30;;
16288;SDS011;26089;43.538;5.250;2023-04-12T13:12:29;15.07;;;8.60;;
16288;SDS011;26089;43.538;5.250;2023-04-12T13:14:56;14.87;;;8.13;;
16288;SDS011;26089;43.538;5.250;2023-04-12T13:17:24;13.17;;;7.73;;
16288;SDS011;26089;43.538;5.250;2023-04-12T13:19:52;15.60;;;8.50;;
16288;SDS011;26089;43.538;5.250;2023-04-12T13:22:20;15.73;;;8.33;;
16288;SDS011;26089;43.538;5.250;2023-04-12T13:24:47;11.87;;;7.73;;
16288;SDS011;26089;43.538;5.250;2023-04-12T13:27:15;16.07;;;8.07;;
16288;SDS011;26089;43.538;5.250;2023-04-12T13:29:43;18.47;;;9.20;;
16288;SDS011;26089;43.538;5.250;2023-04-12T13:32:10;14.57;;;8.70;;
16288;SDS011;26089;43.538;5.250;2023-04-12T13:34:37;17.40;;;8.87;;
16288;SDS011;26089;43.538;5.250;2023-04-12T13:37:04;16.57;;;9.07;;
16288;SDS011;26089;43.538;5.250;2023-04-12T13:39:31;15.37;;;8.60;;
16288;SDS011;26089;43.538;5.250;2023-04-12T13:41:59;16.70;;;8.77;;
16288;SDS011;26089;43.538;5.250;2023-04-12T13:44:28;16.87;;;7.50;;
16288;SDS011;26089;43.538;5.250;2023-04-12T13:46:55;11.30;;;6.93;;
16288;SDS011;26089;43.538;5.250;2023-04-12T13:49:22;15.30;;;7.00;;
16288;SDS011;26089;43.538;5.250;2023-04-12T13:51:49;12.93;;;7.07;;
16288;SDS011;26089;43.538;5.250;2023-04-12T13:54:16;11.87;;;6.73;;
16288;SDS011;26089;43.538;5.250;2023-04-12T13:56:43;15.40;;;6.63;;
16288;SDS011;26089;43.538;5.250;2023-04-12T13:59:10;15.47;;;7.10;;
16288;SDS011;26089;43.538;5.250;2023-04-12T14:01:39;12.70;;;6.93;;
16288;SDS011;26089;43.538;5.250;2023-04-12T14:04:06;13.60;;;6.23;;
16288;SDS011;26089;43.538;5.250;2023-04-12T14:06:33;10.07;;;6.80;;
16288;SDS011;26089;43.538;5.250;2023-04-12T14:09:01;13.77;;;6.30;;
16288;SDS011;26089;43.538;5.250;2023-04-12T14:11:29;12.90;;;6.50;;
16288;SDS011;26089;43.538;5.250;2023-04-12T14:14:09;10.93;;;6.23;;
16288;SDS011;26089;43.538;5.250;2023-04-12T14:16:36;10.17;;;6.70;;
16288;SDS011;26089;43.538;5.250;2023-04-12T14:19:04;10.63;;;5.80;;
16288;SDS011;26089;43.538;5.250;2023-04-12T14:21:31;11.87;;;6.23;;
16288;SDS011;26089;43.538;5.250;2023-04-12T14:23:58;15.90;;;6.67;;
16288;SDS011;26089;43.538;5.250;2023-04-12T14:26:25;16.23;;;7.50;;
16288;SDS011;26089;43.538;5.250;2023-04-12T14:28:52;11.03;;;6.57;;
16288;SDS011;26089;43.538;5.250;2023-04-12T14:31:19;10.77;;;6.40;;
16288;SDS011;26089;43.538;5.250;2023-04-12T14:33:46;10.27;;;6.37;;
16288;SDS011;26089;43.538;5.250;2023-04-12T14:36:16;12.20;;;6.87;;
16288;SDS011;26089;43.538;5.250;2023-04-12T14:38:43;11.73;;;5.77;;
16288;SDS011;26089;43.538;5.250;2023-04-12T14:41:10;12.73;;;6.80;;
16288;SDS011;26089;43.538;5.250;2023-04-12T14:43:38;12.13;;;6.77;;
16288;SDS011;26089;43.538;5.250;2023-04-12T14:46:05;9.50;;;5.77;;
16288;SDS011;26089;43.538;5.250;2023-04-12T14:48:32;9.83;;;5.60;;
16288;SDS011;26089;43.538;5.250;2023-04-12T14:50:59;9.37;;;6.20;;
16288;SDS011;26089;43.538;5.250;2023-04-12T14:53:28;11.70;;;5.93;;